sensor_id;sensor_type;location;lat;lon;timestamp;P1;durP1;ratioP1;P2;durP2;ratioP2
13685;SDS011;6915;48.296;8.874;2022-09-17T00:01:16;1.17;;;0.60;;
13685;SDS011;6915;48.296;8.874;2022-09-17T00:03:47;1.43;;;0.70;;
13685;SDS011;6915;48.296;8.874;2022-09-17T00:06:16;1.40;;;0.80;;
13685;SDS011;6915;48.296;8.874;2022-09-17T00:08:45;0.83;;;0.80;;
13685;SDS011;6915;48.296;8.874;2022-09-17T00:11:13;0.77;;;0.70;;
13685;SDS011;6915;48.296;8.874;2022-09-17T00:13:41;2.87;;;0.67;;
13685;SDS011;6915;48.296;8.874;2022-09-17T00:16:09;1.07;;;0.80;;
13685;SDS011;6915;48.296;8.874;2022-09-17T00:18:36;1.20;;;0.70;;
13685;SDS011;6915;48.296;8.874;2022-09-17T00:21:06;1.27;;;0.90;;
13685;SDS011;6915;48.296;8.874;2022-09-17T00:23:33;1.27;;;0.70;;
13685;SDS011;6915;48.296;8.874;2022-09-17T00:26:03;1.37;;;0.70;;
13685;SDS011;6915;48.296;8.874;2022-09-17T00:28:31;0.60;;;0.60;;
13685;SDS011;6915;48.296;8.874;2022-09-17T00:30:59;0.80;;;0.50;;
13685;SDS011;6915;48.296;8.874;2022-09-17T00:33:26;1.07;;;0.60;;
13685;SDS011;6915;48.296;8.874;2022-09-17T00:35:56;0.87;;;0.70;;
13685;SDS011;6915;48.296;8.874;2022-09-17T00:38:24;2.40;;;0.70;;
13685;SDS011;6915;48.296;8.874;2022-09-17T00:40:51;0.60;;;0.60;;
13685;SDS011;6915;48.296;8.874;2022-09-17T00:43:32;1.23;;;0.70;;
13685;SDS011;6915;48.296;8.874;2022-09-17T00:46:01;1.77;;;0.77;;
13685;SDS011;6915;48.296;8.874;2022-09-17T00:48:29;0.47;;;0.47;;
13685;SDS011;6915;48.296;8.874;2022-09-17T00:50:56;1.60;;;0.50;;
13685;SDS011;6915;48.296;8.874;2022-09-17T00:53:26;0.50;;;0.40;;
13685;SDS011;6915;48.296;8.874;2022-09-17T00:55:56;0.77;;;0.60;;
13685;SDS011;6915;48.296;8.874;2022-09-17T00:58:27;1.00;;;0.60;;
13685;SDS011;6915;48.296;8.874;2022-09-17T01:00:59;1.33;;;0.50;;
13685;SDS011;6915;48.296;8.874;2022-09-17T01:03:26;1.13;;;0.60;;
13685;SDS011;6915;48.296;8.874;2022-09-17T01:05:55;1.07;;;0.73;;
13685;SDS011;6915;48.296;8.874;2022-09-17T01:08:30;1.03;;;0.80;;
13685;SDS011;6915;48.296;8.874;2022-09-17T01:11:09;0.93;;;0.60;;
13685;SDS011;6915;48.296;8.874;2022-09-17T01:13:48;2.43;;;0.70;;
13685;SDS011;6915;48.296;8.874;2022-09-17T01:16:26;0.63;;;0.63;;
13685;SDS011;6915;48.296;8.874;2022-09-17T01:19:04;1.20;;;0.80;;
13685;SDS011;6915;48.296;8.874;2022-09-17T01:21:51;2.77;;;0.63;;
13685;SDS011;6915;48.296;8.874;2022-09-17T01:27:26;1.97;;;0.77;;
13685;SDS011;6915;48.296;8.874;2022-09-17T01:30:18;1.83;;;0.90;;
13685;SDS011;6915;48.296;8.874;2022-09-17T01:33:05;2.60;;;0.80;;
13685;SDS011;6915;48.296;8.874;2022-09-17T01:35:42;1.63;;;0.50;;
13685;SDS011;6915;48.296;8.874;2022-09-17T01:38:19;2.37;;;0.73;;
13685;SDS011;6915;48.296;8.874;2022-09-17T01:40:52;2.37;;;0.80;;
13685;SDS011;6915;48.296;8.874;2022-09-17T01:43:25;0.70;;;0.60;;
13685;SDS011;6915;48.296;8.874;2022-09-17T01:46:02;2.13;;;0.70;;
13685;SDS011;6915;48.296;8.874;2022-09-17T01:48:38;0.77;;;0.70;;
13685;SDS011;6915;48.296;8.874;2022-09-17T01:51:09;0.67;;;0.67;;
13685;SDS011;6915;48.296;8.874;2022-09-17T01:53:42;2.23;;;0.90;;
13685;SDS011;6915;48.296;8.874;2022-09-17T01:56:14;1.30;;;0.70;;
13685;SDS011;6915;48.296;8.874;2022-09-17T01:58:46;2.37;;;0.63;;
13685;SDS011;6915;48.296;8.874;2022-09-17T02:01:19;0.60;;;0.60;;
13685;SDS011;6915;48.296;8.874;2022-09-17T02:03:50;1.07;;;0.63;;
13685;SDS011;6915;48.296;8.874;2022-09-17T02:06:23;0.70;;;0.70;;
13685;SDS011;6915;48.296;8.874;2022-09-17T02:08:55;0.80;;;0.60;;
13685;SDS011;6915;48.296;8.874;2022-09-17T02:11:25;1.13;;;0.60;;
13685;SDS011;6915;48.296;8.874;2022-09-17T02:13:53;1.83;;;0.60;;
13685;SDS011;6915;48.296;8.874;2022-09-17T02:16:26;1.97;;;0.70;;
13685;SDS011;6915;48.296;8.874;2022-09-17T02:18:54;1.47;;;0.80;;
13685;SDS011;6915;48.296;8.874;2022-09-17T02:21:27;0.57;;;0.57;;
13685;SDS011;6915;48.296;8.874;2022-09-17T02:24:01;0.60;;;0.60;;
13685;SDS011;6915;48.296;8.874;2022-09-17T02:26:34;1.97;;;0.70;;
13685;SDS011;6915;48.296;8.874;2022-09-17T02:29:11;0.70;;;0.70;;
13685;SDS011;6915;48.296;8.874;2022-09-17T02:31:43;1.93;;;0.80;;
13685;SDS011;6915;48.296;8.874;2022-09-17T02:34:10;1.20;;;0.70;;
13685;SDS011;6915;48.296;8.874;2022-09-17T02:36:37;0.90;;;0.87;;
13685;SDS011;6915;48.296;8.874;2022-09-17T02:39:04;2.27;;;0.93;;
13685;SDS011;6915;48.296;8.874;2022-09-17T02:41:35;0.90;;;0.50;;
13685;SDS011;6915;48.296;8.874;2022-09-17T02:44:13;0.87;;;0.73;;
13685;SDS011;6915;48.296;8.874;2022-09-17T02:46:58;1.17;;;0.73;;
13685;SDS011;6915;48.296;8.874;2022-09-17T02:49:40;2.10;;;0.70;;
13685;SDS011;6915;48.296;8.874;2022-09-17T02:52:22;1.60;;;0.63;;
13685;SDS011;6915;48.296;8.874;2022-09-17T02:54:59;2.97;;;1.00;;
13685;SDS011;6915;48.296;8.874;2022-09-17T02:57:33;1.43;;;0.63;;
13685;SDS011;6915;48.296;8.874;2022-09-17T03:00:07;1.13;;;0.60;;
13685;SDS011;6915;48.296;8.874;2022-09-17T03:02:41;0.70;;;0.70;;
13685;SDS011;6915;48.296;8.874;2022-09-17T03:05:11;1.63;;;0.80;;
13685;SDS011;6915;48.296;8.874;2022-09-17T03:07:39;1.57;;;0.70;;
13685;SDS011;6915;48.296;8.874;2022-09-17T03:10:07;0.80;;;0.70;;
13685;SDS011;6915;48.296;8.874;2022-09-17T03:12:35;0.83;;;0.70;;
13685;SDS011;6915;48.296;8.874;2022-09-17T03:15:02;1.90;;;0.73;;
13685;SDS011;6915;48.296;8.874;2022-09-17T03:17:31;0.80;;;0.80;;
13685;SDS011;6915;48.296;8.874;2022-09-17T03:19:59;2.87;;;1.07;;
13685;SDS011;6915;48.296;8.874;2022-09-17T03:22:26;1.17;;;0.90;;
13685;SDS011;6915;48.296;8.874;2022-09-17T03:24:53;5.17;;;1.20;;
13685;SDS011;6915;48.296;8.874;2022-09-17T03:27:20;0.97;;;0.90;;
13685;SDS011;6915;48.296;8.874;2022-09-17T03:29:47;3.03;;;1.10;;
13685;SDS011;6915;48.296;8.874;2022-09-17T03:32:14;1.10;;;1.00;;
13685;SDS011;6915;48.296;8.874;2022-09-17T03:34:41;1.13;;;1.00;;
13685;SDS011;6915;48.296;8.874;2022-09-17T03:37:10;0.87;;;0.80;;
13685;SDS011;6915;48.296;8.874;2022-09-17T03:39:37;1.90;;;0.90;;
13685;SDS011;6915;48.296;8.874;2022-09-17T03:42:04;1.10;;;1.00;;
13685;SDS011;6915;48.296;8.874;2022-09-17T03:44:31;2.67;;;1.20;;
13685;SDS011;6915;48.296;8.874;2022-09-17T03:46:58;5.40;;;1.30;;
13685;SDS011;6915;48.296;8.874;2022-09-17T03:49:25;1.97;;;1.30;;
13685;SDS011;6915;48.296;8.874;2022-09-17T03:51:52;2.83;;;1.00;;
13685;SDS011;6915;48.296;8.874;2022-09-17T03:54:20;4.63;;;1.23;;
13685;SDS011;6915;48.296;8.874;2022-09-17T03:56:50;1.20;;;1.20;;
13685;SDS011;6915;48.296;8.874;2022-09-17T03:59:20;1.20;;;0.90;;
13685;SDS011;6915;48.296;8.874;2022-09-17T04:01:47;2.63;;;1.10;;
13685;SDS011;6915;48.296;8.874;2022-09-17T04:04:14;1.97;;;1.00;;
13685;SDS011;6915;48.296;8.874;2022-09-17T04:06:44;1.50;;;0.97;;
13685;SDS011;6915;48.296;8.874;2022-09-17T04:09:14;1.67;;;1.00;;
13685;SDS011;6915;48.296;8.874;2022-09-17T04:11:43;2.03;;;0.90;;
13685;SDS011;6915;48.296;8.874;2022-09-17T04:14:10;1.53;;;0.90;;
13685;SDS011;6915;48.296;8.874;2022-09-17T04:16:37;1.10;;;0.70;;
13685;SDS011;6915;48.296;8.874;2022-09-17T04:19:04;2.07;;;1.10;;
13685;SDS011;6915;48.296;8.874;2022-09-17T04:21:34;1.23;;;0.90;;
13685;SDS011;6915;48.296;8.874;2022-09-17T04:24:03;2.10;;;1.00;;
13685;SDS011;6915;48.296;8.874;2022-09-17T04:26:31;1.87;;;1.00;;
13685;SDS011;6915;48.296;8.874;2022-09-17T04:29:02;1.30;;;1.20;;
13685;SDS011;6915;48.296;8.874;2022-09-17T04:31:29;1.43;;;1.00;;
13685;SDS011;6915;48.296;8.874;2022-09-17T04:33:56;1.77;;;1.10;;
13685;SDS011;6915;48.296;8.874;2022-09-17T04:36:23;2.50;;;1.00;;
13685;SDS011;6915;48.296;8.874;2022-09-17T04:38:51;2.70;;;1.10;;
13685;SDS011;6915;48.296;8.874;2022-09-17T04:41:21;2.60;;;1.13;;
13685;SDS011;6915;48.296;8.874;2022-09-17T04:43:48;2.10;;;0.90;;
13685;SDS011;6915;48.296;8.874;2022-09-17T04:46:18;1.23;;;0.80;;
13685;SDS011;6915;48.296;8.874;2022-09-17T04:48:45;1.03;;;1.00;;
13685;SDS011;6915;48.296;8.874;2022-09-17T04:51:12;2.30;;;0.90;;
13685;SDS011;6915;48.296;8.874;2022-09-17T04:53:39;1.47;;;0.90;;
13685;SDS011;6915;48.296;8.874;2022-09-17T04:56:07;1.93;;;0.70;;
13685;SDS011;6915;48.296;8.874;2022-09-17T04:58:36;1.47;;;0.70;;
13685;SDS011;6915;48.296;8.874;2022-09-17T05:01:03;2.60;;;0.90;;
13685;SDS011;6915;48.296;8.874;2022-09-17T05:03:47;2.03;;;0.83;;
13685;SDS011;6915;48.296;8.874;2022-09-17T05:06:34;2.37;;;0.80;;
13685;SDS011;6915;48.296;8.874;2022-09-17T05:09:47;1.17;;;0.70;;
13685;SDS011;6915;48.296;8.874;2022-09-17T05:12:14;4.77;;;0.83;;
13685;SDS011;6915;48.296;8.874;2022-09-17T05:14:44;0.67;;;0.67;;
13685;SDS011;6915;48.296;8.874;2022-09-17T05:17:28;3.00;;;0.77;;
13685;SDS011;6915;48.296;8.874;2022-09-17T05:20:06;1.90;;;0.90;;
13685;SDS011;6915;48.296;8.874;2022-09-17T05:22:53;1.10;;;0.70;;
13685;SDS011;6915;48.296;8.874;2022-09-17T05:25:28;1.77;;;0.70;;
13685;SDS011;6915;48.296;8.874;2022-09-17T05:28:09;1.33;;;0.90;;
13685;SDS011;6915;48.296;8.874;2022-09-17T05:30:41;1.57;;;0.60;;
13685;SDS011;6915;48.296;8.874;2022-09-17T05:33:11;1.80;;;0.70;;
13685;SDS011;6915;48.296;8.874;2022-09-17T05:35:50;1.07;;;0.60;;
13685;SDS011;6915;48.296;8.874;2022-09-17T05:38:24;0.90;;;0.53;;
13685;SDS011;6915;48.296;8.874;2022-09-17T05:41:07;1.97;;;0.80;;
13685;SDS011;6915;48.296;8.874;2022-09-17T05:43:52;1.47;;;1.00;;
13685;SDS011;6915;48.296;8.874;2022-09-17T05:46:26;3.27;;;1.00;;
13685;SDS011;6915;48.296;8.874;2022-09-17T05:48:56;1.10;;;0.80;;
13685;SDS011;6915;48.296;8.874;2022-09-17T05:54:28;1.87;;;0.80;;
13685;SDS011;6915;48.296;8.874;2022-09-17T05:57:14;3.17;;;1.10;;
13685;SDS011;6915;48.296;8.874;2022-09-17T05:59:58;1.43;;;1.10;;
13685;SDS011;6915;48.296;8.874;2022-09-17T06:02:30;2.47;;;1.00;;
13685;SDS011;6915;48.296;8.874;2022-09-17T06:05:12;2.37;;;1.10;;
13685;SDS011;6915;48.296;8.874;2022-09-17T06:07:45;3.13;;;0.90;;
13685;SDS011;6915;48.296;8.874;2022-09-17T06:10:18;1.47;;;0.90;;
13685;SDS011;6915;48.296;8.874;2022-09-17T06:13:03;2.03;;;1.10;;
13685;SDS011;6915;48.296;8.874;2022-09-17T06:15:40;2.00;;;0.90;;
13685;SDS011;6915;48.296;8.874;2022-09-17T06:18:22;1.73;;;0.90;;
13685;SDS011;6915;48.296;8.874;2022-09-17T06:20:52;4.07;;;0.90;;
13685;SDS011;6915;48.296;8.874;2022-09-17T06:23:23;1.77;;;1.10;;
13685;SDS011;6915;48.296;8.874;2022-09-17T06:25:54;2.37;;;1.20;;
13685;SDS011;6915;48.296;8.874;2022-09-17T06:28:28;3.33;;;0.90;;
13685;SDS011;6915;48.296;8.874;2022-09-17T06:31:13;2.57;;;1.30;;
13685;SDS011;6915;48.296;8.874;2022-09-17T06:34:00;2.37;;;1.20;;
13685;SDS011;6915;48.296;8.874;2022-09-17T06:36:30;1.77;;;0.83;;
13685;SDS011;6915;48.296;8.874;2022-09-17T06:39:24;3.67;;;1.20;;
13685;SDS011;6915;48.296;8.874;2022-09-17T06:41:56;3.13;;;1.40;;
13685;SDS011;6915;48.296;8.874;2022-09-17T06:44:28;1.13;;;0.80;;
13685;SDS011;6915;48.296;8.874;2022-09-17T06:46:58;3.00;;;1.10;;
13685;SDS011;6915;48.296;8.874;2022-09-17T06:49:32;3.70;;;0.93;;
13685;SDS011;6915;48.296;8.874;2022-09-17T06:51:59;3.93;;;1.20;;
13685;SDS011;6915;48.296;8.874;2022-09-17T06:54:49;2.20;;;1.17;;
13685;SDS011;6915;48.296;8.874;2022-09-17T06:57:29;2.23;;;0.90;;
13685;SDS011;6915;48.296;8.874;2022-09-17T07:00:10;3.23;;;1.10;;
13685;SDS011;6915;48.296;8.874;2022-09-17T07:02:53;2.50;;;0.90;;
13685;SDS011;6915;48.296;8.874;2022-09-17T07:05:31;1.47;;;0.77;;
13685;SDS011;6915;48.296;8.874;2022-09-17T07:08:05;3.07;;;1.20;;
13685;SDS011;6915;48.296;8.874;2022-09-17T07:10:40;2.50;;;0.80;;
13685;SDS011;6915;48.296;8.874;2022-09-17T07:13:10;2.97;;;0.90;;
13685;SDS011;6915;48.296;8.874;2022-09-17T07:15:41;3.17;;;1.50;;
13685;SDS011;6915;48.296;8.874;2022-09-17T07:18:27;1.53;;;1.30;;
13685;SDS011;6915;48.296;8.874;2022-09-17T07:20:57;3.30;;;1.10;;
13685;SDS011;6915;48.296;8.874;2022-09-17T07:23:43;3.80;;;1.17;;
13685;SDS011;6915;48.296;8.874;2022-09-17T07:26:14;3.20;;;1.10;;
13685;SDS011;6915;48.296;8.874;2022-09-17T07:28:42;2.37;;;0.83;;
13685;SDS011;6915;48.296;8.874;2022-09-17T07:31:09;3.17;;;1.20;;
13685;SDS011;6915;48.296;8.874;2022-09-17T07:33:37;1.03;;;0.93;;
13685;SDS011;6915;48.296;8.874;2022-09-17T07:36:05;3.17;;;1.10;;
13685;SDS011;6915;48.296;8.874;2022-09-17T07:38:33;1.77;;;1.00;;
13685;SDS011;6915;48.296;8.874;2022-09-17T07:41:00;3.00;;;1.03;;
13685;SDS011;6915;48.296;8.874;2022-09-17T07:43:30;3.03;;;0.90;;
13685;SDS011;6915;48.296;8.874;2022-09-17T07:45:59;2.57;;;0.87;;
13685;SDS011;6915;48.296;8.874;2022-09-17T07:48:27;4.77;;;1.40;;
13685;SDS011;6915;48.296;8.874;2022-09-17T07:50:55;1.80;;;0.80;;
13685;SDS011;6915;48.296;8.874;2022-09-17T07:53:22;3.90;;;1.17;;
13685;SDS011;6915;48.296;8.874;2022-09-17T07:55:52;2.53;;;0.67;;
13685;SDS011;6915;48.296;8.874;2022-09-17T07:58:19;2.27;;;0.80;;
13685;SDS011;6915;48.296;8.874;2022-09-17T08:00:48;3.47;;;1.23;;
13685;SDS011;6915;48.296;8.874;2022-09-17T08:03:15;3.40;;;1.00;;
13685;SDS011;6915;48.296;8.874;2022-09-17T08:05:42;2.67;;;0.90;;
13685;SDS011;6915;48.296;8.874;2022-09-17T08:08:09;4.03;;;1.00;;
13685;SDS011;6915;48.296;8.874;2022-09-17T08:10:36;2.13;;;0.90;;
13685;SDS011;6915;48.296;8.874;2022-09-17T08:13:03;2.97;;;0.90;;
13685;SDS011;6915;48.296;8.874;2022-09-17T08:15:30;2.73;;;0.77;;
13685;SDS011;6915;48.296;8.874;2022-09-17T08:17:58;2.40;;;0.90;;
13685;SDS011;6915;48.296;8.874;2022-09-17T08:20:25;2.70;;;0.93;;
13685;SDS011;6915;48.296;8.874;2022-09-17T08:22:58;1.67;;;0.67;;
13685;SDS011;6915;48.296;8.874;2022-09-17T08:25:26;2.57;;;0.63;;
13685;SDS011;6915;48.296;8.874;2022-09-17T08:27:53;1.50;;;0.80;;
13685;SDS011;6915;48.296;8.874;2022-09-17T08:30:23;1.87;;;0.80;;
13685;SDS011;6915;48.296;8.874;2022-09-17T08:32:50;1.87;;;0.60;;
13685;SDS011;6915;48.296;8.874;2022-09-17T08:35:18;2.63;;;0.83;;
13685;SDS011;6915;48.296;8.874;2022-09-17T08:37:45;1.63;;;1.03;;
13685;SDS011;6915;48.296;8.874;2022-09-17T08:40:14;2.67;;;0.77;;
13685;SDS011;6915;48.296;8.874;2022-09-17T08:42:48;1.53;;;0.63;;
13685;SDS011;6915;48.296;8.874;2022-09-17T08:45:19;1.33;;;0.70;;
13685;SDS011;6915;48.296;8.874;2022-09-17T08:47:46;1.53;;;0.70;;
13685;SDS011;6915;48.296;8.874;2022-09-17T08:50:15;1.57;;;0.97;;
13685;SDS011;6915;48.296;8.874;2022-09-17T08:52:55;3.13;;;1.00;;
13685;SDS011;6915;48.296;8.874;2022-09-17T08:55:35;2.97;;;0.90;;
13685;SDS011;6915;48.296;8.874;2022-09-17T09:01:04;1.53;;;0.70;;
13685;SDS011;6915;48.296;8.874;2022-09-17T09:03:43;1.10;;;0.60;;
13685;SDS011;6915;48.296;8.874;2022-09-17T09:06:30;3.00;;;0.70;;
13685;SDS011;6915;48.296;8.874;2022-09-17T09:09:02;1.50;;;0.50;;
13685;SDS011;6915;48.296;8.874;2022-09-17T09:11:31;2.37;;;0.60;;
13685;SDS011;6915;48.296;8.874;2022-09-17T09:14:00;1.80;;;0.50;;
13685;SDS011;6915;48.296;8.874;2022-09-17T09:16:33;0.80;;;0.73;;
13685;SDS011;6915;48.296;8.874;2022-09-17T09:19:22;2.57;;;0.63;;
13685;SDS011;6915;48.296;8.874;2022-09-17T09:21:59;0.80;;;0.60;;
13685;SDS011;6915;48.296;8.874;2022-09-17T09:24:30;0.53;;;0.40;;
13685;SDS011;6915;48.296;8.874;2022-09-17T09:27:11;0.30;;;0.20;;
13685;SDS011;6915;48.296;8.874;2022-09-17T09:29:44;1.80;;;0.60;;
13685;SDS011;6915;48.296;8.874;2022-09-17T09:32:24;2.20;;;2.00;;
13685;SDS011;6915;48.296;8.874;2022-09-17T09:35:12;2.30;;;0.40;;
13685;SDS011;6915;48.296;8.874;2022-09-17T09:37:45;0.20;;;0.20;;
13685;SDS011;6915;48.296;8.874;2022-09-17T09:40:25;0.40;;;0.30;;
13685;SDS011;6915;48.296;8.874;2022-09-17T09:43:00;1.40;;;0.50;;
13685;SDS011;6915;48.296;8.874;2022-09-17T09:45:33;0.73;;;0.40;;
13685;SDS011;6915;48.296;8.874;2022-09-17T09:48:11;0.80;;;0.30;;
13685;SDS011;6915;48.296;8.874;2022-09-17T09:50:46;0.70;;;0.30;;
13685;SDS011;6915;48.296;8.874;2022-09-17T09:53:24;1.00;;;0.53;;
13685;SDS011;6915;48.296;8.874;2022-09-17T09:56:05;0.73;;;0.50;;
13685;SDS011;6915;48.296;8.874;2022-09-17T09:58:49;1.37;;;0.37;;
13685;SDS011;6915;48.296;8.874;2022-09-17T10:01:16;1.10;;;0.40;;
13685;SDS011;6915;48.296;8.874;2022-09-17T10:03:46;1.07;;;0.50;;
13685;SDS011;6915;48.296;8.874;2022-09-17T10:06:16;2.40;;;0.57;;
13685;SDS011;6915;48.296;8.874;2022-09-17T10:11:38;0.63;;;0.30;;
13685;SDS011;6915;48.296;8.874;2022-09-17T10:14:13;1.30;;;0.40;;
13685;SDS011;6915;48.296;8.874;2022-09-17T10:16:48;2.50;;;0.50;;
13685;SDS011;6915;48.296;8.874;2022-09-17T10:19:18;2.30;;;1.00;;
13685;SDS011;6915;48.296;8.874;2022-09-17T10:21:49;1.30;;;0.70;;
13685;SDS011;6915;48.296;8.874;2022-09-17T10:24:21;4.97;;;0.87;;
13685;SDS011;6915;48.296;8.874;2022-09-17T10:26:50;2.90;;;0.63;;
13685;SDS011;6915;48.296;8.874;2022-09-17T10:29:25;2.13;;;0.80;;
13685;SDS011;6915;48.296;8.874;2022-09-17T10:31:53;2.40;;;0.80;;
13685;SDS011;6915;48.296;8.874;2022-09-17T10:34:21;1.83;;;0.80;;
13685;SDS011;6915;48.296;8.874;2022-09-17T10:36:50;2.60;;;0.70;;
13685;SDS011;6915;48.296;8.874;2022-09-17T10:39:28;1.17;;;0.50;;
13685;SDS011;6915;48.296;8.874;2022-09-17T10:42:00;2.50;;;0.63;;
13685;SDS011;6915;48.296;8.874;2022-09-17T10:44:29;0.97;;;0.73;;
13685;SDS011;6915;48.296;8.874;2022-09-17T10:47:03;1.30;;;0.70;;
13685;SDS011;6915;48.296;8.874;2022-09-17T10:49:34;1.20;;;0.50;;
13685;SDS011;6915;48.296;8.874;2022-09-17T10:52:08;1.37;;;0.50;;
13685;SDS011;6915;48.296;8.874;2022-09-17T10:54:43;1.33;;;0.43;;
13685;SDS011;6915;48.296;8.874;2022-09-17T10:57:22;1.00;;;0.40;;
13685;SDS011;6915;48.296;8.874;2022-09-17T11:00:01;2.17;;;0.70;;
13685;SDS011;6915;48.296;8.874;2022-09-17T11:02:45;2.90;;;0.73;;
13685;SDS011;6915;48.296;8.874;2022-09-17T11:05:44;2.63;;;0.70;;
13685;SDS011;6915;48.296;8.874;2022-09-17T11:08:24;1.90;;;0.50;;
13685;SDS011;6915;48.296;8.874;2022-09-17T11:11:01;4.03;;;0.90;;
13685;SDS011;6915;48.296;8.874;2022-09-17T11:13:35;1.40;;;0.93;;
13685;SDS011;6915;48.296;8.874;2022-09-17T11:18:58;3.80;;;1.17;;
13685;SDS011;6915;48.296;8.874;2022-09-17T11:21:37;3.60;;;0.97;;
13685;SDS011;6915;48.296;8.874;2022-09-17T11:24:20;3.33;;;1.10;;
13685;SDS011;6915;48.296;8.874;2022-09-17T11:27:13;1.53;;;0.70;;
13685;SDS011;6915;48.296;8.874;2022-09-17T11:29:57;2.27;;;0.80;;
13685;SDS011;6915;48.296;8.874;2022-09-17T11:32:42;4.50;;;0.93;;
13685;SDS011;6915;48.296;8.874;2022-09-17T11:35:30;4.57;;;1.10;;
13685;SDS011;6915;48.296;8.874;2022-09-17T11:38:01;2.10;;;0.60;;
13685;SDS011;6915;48.296;8.874;2022-09-17T11:40:36;1.67;;;0.40;;
13685;SDS011;6915;48.296;8.874;2022-09-17T11:43:11;2.83;;;0.70;;
13685;SDS011;6915;48.296;8.874;2022-09-17T11:45:47;1.50;;;0.70;;
13685;SDS011;6915;48.296;8.874;2022-09-17T11:48:22;2.37;;;1.03;;
13685;SDS011;6915;48.296;8.874;2022-09-17T11:50:57;3.13;;;0.77;;
13685;SDS011;6915;48.296;8.874;2022-09-17T11:53:30;1.57;;;0.70;;
13685;SDS011;6915;48.296;8.874;2022-09-17T11:56:02;4.23;;;0.90;;
13685;SDS011;6915;48.296;8.874;2022-09-17T11:58:39;2.20;;;0.77;;
13685;SDS011;6915;48.296;8.874;2022-09-17T12:01:10;2.23;;;0.80;;
13685;SDS011;6915;48.296;8.874;2022-09-17T12:03:42;3.53;;;1.00;;
13685;SDS011;6915;48.296;8.874;2022-09-17T12:06:15;2.47;;;0.90;;
13685;SDS011;6915;48.296;8.874;2022-09-17T12:08:47;5.00;;;0.93;;
13685;SDS011;6915;48.296;8.874;2022-09-17T12:11:21;2.60;;;0.73;;
13685;SDS011;6915;48.296;8.874;2022-09-17T12:13:54;1.90;;;0.53;;
13685;SDS011;6915;48.296;8.874;2022-09-17T12:16:26;0.83;;;0.47;;
13685;SDS011;6915;48.296;8.874;2022-09-17T12:18:58;1.10;;;0.60;;
13685;SDS011;6915;48.296;8.874;2022-09-17T12:21:34;1.70;;;0.40;;
13685;SDS011;6915;48.296;8.874;2022-09-17T12:24:30;0.60;;;0.33;;
13685;SDS011;6915;48.296;8.874;2022-09-17T12:27:03;0.73;;;0.40;;
13685;SDS011;6915;48.296;8.874;2022-09-17T12:29:50;2.87;;;0.50;;
13685;SDS011;6915;48.296;8.874;2022-09-17T12:32:33;2.53;;;1.40;;
13685;SDS011;6915;48.296;8.874;2022-09-17T12:35:32;2.00;;;1.20;;
13685;SDS011;6915;48.296;8.874;2022-09-17T12:38:25;2.20;;;1.27;;
13685;SDS011;6915;48.296;8.874;2022-09-17T12:41:18;2.57;;;1.80;;
13685;SDS011;6915;48.296;8.874;2022-09-17T12:43:56;4.27;;;2.60;;
13685;SDS011;6915;48.296;8.874;2022-09-17T12:46:40;4.40;;;2.77;;
13685;SDS011;6915;48.296;8.874;2022-09-17T12:49:30;2.87;;;2.20;;
13685;SDS011;6915;48.296;8.874;2022-09-17T12:52:13;1.93;;;1.30;;
13685;SDS011;6915;48.296;8.874;2022-09-17T12:54:54;3.50;;;1.40;;
13685;SDS011;6915;48.296;8.874;2022-09-17T12:57:43;1.87;;;0.80;;
13685;SDS011;6915;48.296;8.874;2022-09-17T13:00:16;1.60;;;1.10;;
13685;SDS011;6915;48.296;8.874;2022-09-17T13:02:46;2.57;;;0.70;;
13685;SDS011;6915;48.296;8.874;2022-09-17T13:05:32;1.80;;;0.90;;
13685;SDS011;6915;48.296;8.874;2022-09-17T13:11:23;4.43;;;2.10;;
13685;SDS011;6915;48.296;8.874;2022-09-17T13:14:15;1.40;;;0.50;;
13685;SDS011;6915;48.296;8.874;2022-09-17T13:16:50;3.60;;;0.70;;
13685;SDS011;6915;48.296;8.874;2022-09-17T13:19:26;1.10;;;0.60;;
13685;SDS011;6915;48.296;8.874;2022-09-17T13:22:02;0.90;;;0.70;;
13685;SDS011;6915;48.296;8.874;2022-09-17T13:24:34;2.00;;;0.70;;
13685;SDS011;6915;48.296;8.874;2022-09-17T13:27:03;1.93;;;0.57;;
13685;SDS011;6915;48.296;8.874;2022-09-17T13:29:56;1.00;;;0.50;;
13685;SDS011;6915;48.296;8.874;2022-09-17T13:38:18;2.23;;;0.70;;
13685;SDS011;6915;48.296;8.874;2022-09-17T13:40:48;2.03;;;0.97;;
13685;SDS011;6915;48.296;8.874;2022-09-17T13:43:16;1.63;;;0.73;;
13685;SDS011;6915;48.296;8.874;2022-09-17T13:48:50;2.93;;;0.70;;
13685;SDS011;6915;48.296;8.874;2022-09-17T13:54:18;1.57;;;0.70;;
13685;SDS011;6915;48.296;8.874;2022-09-17T13:56:49;1.30;;;0.80;;
13685;SDS011;6915;48.296;8.874;2022-09-17T13:59:31;2.40;;;1.10;;
13685;SDS011;6915;48.296;8.874;2022-09-17T14:02:01;5.17;;;1.00;;
13685;SDS011;6915;48.296;8.874;2022-09-17T14:08:24;3.13;;;1.30;;
13685;SDS011;6915;48.296;8.874;2022-09-17T14:10:56;2.43;;;1.20;;
13685;SDS011;6915;48.296;8.874;2022-09-17T14:13:47;2.57;;;1.20;;
13685;SDS011;6915;48.296;8.874;2022-09-17T14:19:24;1.93;;;0.97;;
13685;SDS011;6915;48.296;8.874;2022-09-17T14:22:14;1.20;;;1.00;;
13685;SDS011;6915;48.296;8.874;2022-09-17T14:24:48;1.40;;;1.10;;
13685;SDS011;6915;48.296;8.874;2022-09-17T14:27:26;2.43;;;1.30;;
13685;SDS011;6915;48.296;8.874;2022-09-17T14:30:12;1.40;;;1.30;;
13685;SDS011;6915;48.296;8.874;2022-09-17T14:32:43;2.43;;;0.80;;
13685;SDS011;6915;48.296;8.874;2022-09-17T14:35:20;2.80;;;1.20;;
13685;SDS011;6915;48.296;8.874;2022-09-17T14:37:55;3.33;;;1.13;;
13685;SDS011;6915;48.296;8.874;2022-09-17T14:40:25;2.23;;;1.10;;
13685;SDS011;6915;48.296;8.874;2022-09-17T14:42:54;1.47;;;1.00;;
13685;SDS011;6915;48.296;8.874;2022-09-17T14:45:23;0.60;;;0.60;;
13685;SDS011;6915;48.296;8.874;2022-09-17T14:54:06;0.53;;;0.53;;
13685;SDS011;6915;48.296;8.874;2022-09-17T14:56:41;0.67;;;0.50;;
13685;SDS011;6915;48.296;8.874;2022-09-17T14:59:22;1.23;;;0.73;;
13685;SDS011;6915;48.296;8.874;2022-09-17T15:01:54;1.03;;;0.77;;
13685;SDS011;6915;48.296;8.874;2022-09-17T15:04:22;1.67;;;0.77;;
13685;SDS011;6915;48.296;8.874;2022-09-17T15:06:50;1.10;;;0.70;;
13685;SDS011;6915;48.296;8.874;2022-09-17T15:09:21;2.63;;;0.70;;
13685;SDS011;6915;48.296;8.874;2022-09-17T15:11:50;1.07;;;0.70;;
13685;SDS011;6915;48.296;8.874;2022-09-17T15:14:20;1.63;;;0.67;;
13685;SDS011;6915;48.296;8.874;2022-09-17T15:16:50;2.20;;;0.80;;
13685;SDS011;6915;48.296;8.874;2022-09-17T15:19:21;2.50;;;0.93;;
13685;SDS011;6915;48.296;8.874;2022-09-17T15:21:52;0.83;;;0.83;;
13685;SDS011;6915;48.296;8.874;2022-09-17T15:24:31;1.20;;;0.80;;
13685;SDS011;6915;48.296;8.874;2022-09-17T15:27:08;2.83;;;1.10;;
13685;SDS011;6915;48.296;8.874;2022-09-17T15:29:38;4.20;;;1.07;;
13685;SDS011;6915;48.296;8.874;2022-09-17T15:32:10;1.57;;;1.00;;
13685;SDS011;6915;48.296;8.874;2022-09-17T15:37:45;3.13;;;1.23;;
13685;SDS011;6915;48.296;8.874;2022-09-17T15:40:13;1.90;;;1.10;;
13685;SDS011;6915;48.296;8.874;2022-09-17T15:42:50;1.80;;;1.30;;
13685;SDS011;6915;48.296;8.874;2022-09-17T15:45:18;3.43;;;1.37;;
13685;SDS011;6915;48.296;8.874;2022-09-17T15:48:14;2.57;;;1.37;;
13685;SDS011;6915;48.296;8.874;2022-09-17T15:51:14;3.27;;;1.27;;
13685;SDS011;6915;48.296;8.874;2022-09-17T15:54:24;2.63;;;1.07;;
13685;SDS011;6915;48.296;8.874;2022-09-17T15:56:57;1.53;;;1.40;;
13685;SDS011;6915;48.296;8.874;2022-09-17T15:59:30;2.00;;;1.27;;
13685;SDS011;6915;48.296;8.874;2022-09-17T16:02:03;3.03;;;1.50;;
13685;SDS011;6915;48.296;8.874;2022-09-17T16:04:34;2.07;;;1.27;;
13685;SDS011;6915;48.296;8.874;2022-09-17T16:10:14;4.20;;;1.50;;
13685;SDS011;6915;48.296;8.874;2022-09-17T16:12:50;2.17;;;0.97;;
13685;SDS011;6915;48.296;8.874;2022-09-17T16:15:26;1.57;;;0.80;;
13685;SDS011;6915;48.296;8.874;2022-09-17T16:18:12;2.33;;;0.83;;
13685;SDS011;6915;48.296;8.874;2022-09-17T16:20:54;1.57;;;0.90;;
13685;SDS011;6915;48.296;8.874;2022-09-17T16:23:31;1.43;;;0.80;;
13685;SDS011;6915;48.296;8.874;2022-09-17T16:25:59;1.23;;;0.80;;
13685;SDS011;6915;48.296;8.874;2022-09-17T16:28:30;2.33;;;1.10;;
13685;SDS011;6915;48.296;8.874;2022-09-17T16:30:59;2.50;;;1.23;;